sensor_id;sensor_type;location;lat;lon;timestamp;temperature;humidity
5304;DHT22;2674;49.722;10.892;2022-08-23T00:01:12;15.40;99.90
5304;DHT22;2674;49.722;10.892;2022-08-23T00:03:39;15.40;99.90
5304;DHT22;2674;49.722;10.892;2022-08-23T00:06:05;15.30;99.90
5304;DHT22;2674;49.722;10.892;2022-08-23T00:08:31;15.30;99.90
5304;DHT22;2674;49.722;10.892;2022-08-23T00:10:58;15.20;99.90
5304;DHT22;2674;49.722;10.892;2022-08-23T00:13:25;15.20;99.90
5304;DHT22;2674;49.722;10.892;2022-08-23T00:15:51;15.10;99.90
5304;DHT22;2674;49.722;10.892;2022-08-23T00:18:17;15.10;99.90
5304;DHT22;2674;49.722;10.892;2022-08-23T00:20:46;15.10;99.90
5304;DHT22;2674;49.722;10.892;2022-08-23T00:23:12;15.00;99.90
5304;DHT22;2674;49.722;10.892;2022-08-23T00:25:39;14.90;99.90
5304;DHT22;2674;49.722;10.892;2022-08-23T00:28:05;14.90;99.90
5304;DHT22;2674;49.722;10.892;2022-08-23T00:30:31;14.90;99.90
5304;DHT22;2674;49.722;10.892;2022-08-23T00:32:57;14.90;99.90
5304;DHT22;2674;49.722;10.892;2022-08-23T00:35:23;14.80;99.90
5304;DHT22;2674;49.722;10.892;2022-08-23T00:37:48;14.80;99.90
5304;DHT22;2674;49.722;10.892;2022-08-23T00:40:16;14.80;99.90
5304;DHT22;2674;49.722;10.892;2022-08-23T00:42:43;14.70;99.90
5304;DHT22;2674;49.722;10.892;2022-08-23T00:46:19;14.70;99.90
5304;DHT22;2674;49.722;10.892;2022-08-23T00:49:10;14.70;99.90
5304;DHT22;2674;49.722;10.892;2022-08-23T00:51:54;14.70;99.90
5304;DHT22;2674;49.722;10.892;2022-08-23T00:54:24;14.60;99.90
5304;DHT22;2674;49.722;10.892;2022-08-23T00:56:53;14.60;99.90
5304;DHT22;2674;49.722;10.892;2022-08-23T00:59:20;14.60;99.90
5304;DHT22;2674;49.722;10.892;2022-08-23T01:01:47;14.60;99.90
5304;DHT22;2674;49.722;10.892;2022-08-23T01:04:13;14.60;99.90
5304;DHT22;2674;49.722;10.892;2022-08-23T01:09:17;14.50;99.90
5304;DHT22;2674;49.722;10.892;2022-08-23T01:12:11;14.40;99.90
5304;DHT22;2674;49.722;10.892;2022-08-23T01:14:56;14.40;99.90
5304;DHT22;2674;49.722;10.892;2022-08-23T01:17:40;14.40;99.90
5304;DHT22;2674;49.722;10.892;2022-08-23T01:20:18;14.30;99.90
5304;DHT22;2674;49.722;10.892;2022-08-23T01:25:19;14.20;99.90
5304;DHT22;2674;49.722;10.892;2022-08-23T01:27:46;14.20;99.90
5304;DHT22;2674;49.722;10.892;2022-08-23T01:30:17;14.20;99.90
5304;DHT22;2674;49.722;10.892;2022-08-23T01:32:55;14.10;99.90
5304;DHT22;2674;49.722;10.892;2022-08-23T01:35:47;14.10;99.90
5304;DHT22;2674;49.722;10.892;2022-08-23T01:38:11;14.10;99.90
5304;DHT22;2674;49.722;10.892;2022-08-23T01:40:37;14.10;99.90
5304;DHT22;2674;49.722;10.892;2022-08-23T01:43:04;14.00;99.90
5304;DHT22;2674;49.722;10.892;2022-08-23T01:45:31;14.00;99.90
5304;DHT22;2674;49.722;10.892;2022-08-23T01:47:58;13.90;99.90
5304;DHT22;2674;49.722;10.892;2022-08-23T01:50:25;13.90;99.90
5304;DHT22;2674;49.722;10.892;2022-08-23T01:52:52;13.90;99.90
5304;DHT22;2674;49.722;10.892;2022-08-23T01:55:18;13.80;99.90
5304;DHT22;2674;49.722;10.892;2022-08-23T01:57:46;13.80;99.90
5304;DHT22;2674;49.722;10.892;2022-08-23T02:00:13;13.80;99.90
5304;DHT22;2674;49.722;10.892;2022-08-23T02:02:39;13.80;99.90
5304;DHT22;2674;49.722;10.892;2022-08-23T02:05:06;13.80;99.90
5304;DHT22;2674;49.722;10.892;2022-08-23T02:07:32;13.70;99.90
5304;DHT22;2674;49.722;10.892;2022-08-23T02:09:58;13.70;99.90
5304;DHT22;2674;49.722;10.892;2022-08-23T02:12:23;13.70;99.90
5304;DHT22;2674;49.722;10.892;2022-08-23T02:14:49;13.70;99.90
5304;DHT22;2674;49.722;10.892;2022-08-23T02:17:16;13.70;99.90
5304;DHT22;2674;49.722;10.892;2022-08-23T02:19:43;13.70;99.90
5304;DHT22;2674;49.722;10.892;2022-08-23T02:22:10;13.70;99.90
5304;DHT22;2674;49.722;10.892;2022-08-23T02:24:42;13.70;99.90
5304;DHT22;2674;49.722;10.892;2022-08-23T02:27:10;13.70;99.90
5304;DHT22;2674;49.722;10.892;2022-08-23T02:29:36;13.60;99.90
5304;DHT22;2674;49.722;10.892;2022-08-23T02:32:03;13.60;99.90
5304;DHT22;2674;49.722;10.892;2022-08-23T02:34:30;13.60;99.90
5304;DHT22;2674;49.722;10.892;2022-08-23T02:36:57;13.60;99.90
5304;DHT22;2674;49.722;10.892;2022-08-23T02:39:23;13.60;99.90
5304;DHT22;2674;49.722;10.892;2022-08-23T02:41:49;13.50;99.90
5304;DHT22;2674;49.722;10.892;2022-08-23T02:44:17;13.50;99.90
5304;DHT22;2674;49.722;10.892;2022-08-23T02:46:45;13.40;99.90
5304;DHT22;2674;49.722;10.892;2022-08-23T02:49:11;13.40;99.90
5304;DHT22;2674;49.722;10.892;2022-08-23T02:51:39;13.40;99.90
5304;DHT22;2674;49.722;10.892;2022-08-23T02:54:06;13.40;99.90
5304;DHT22;2674;49.722;10.892;2022-08-23T02:56:32;13.40;99.90
5304;DHT22;2674;49.722;10.892;2022-08-23T02:58:58;13.30;99.90
5304;DHT22;2674;49.722;10.892;2022-08-23T03:01:28;13.30;99.90
5304;DHT22;2674;49.722;10.892;2022-08-23T03:03:55;13.30;99.90
5304;DHT22;2674;49.722;10.892;2022-08-23T03:06:21;13.20;99.90
5304;DHT22;2674;49.722;10.892;2022-08-23T03:08:47;13.20;99.90
5304;DHT22;2674;49.722;10.892;2022-08-23T03:11:16;13.10;99.90
5304;DHT22;2674;49.722;10.892;2022-08-23T03:13:43;13.10;99.90
5304;DHT22;2674;49.722;10.892;2022-08-23T03:16:11;13.10;99.90
5304;DHT22;2674;49.722;10.892;2022-08-23T03:18:37;13.10;99.90
5304;DHT22;2674;49.722;10.892;2022-08-23T03:21:04;13.10;99.90
5304;DHT22;2674;49.722;10.892;2022-08-23T03:23:31;13.10;99.90
5304;DHT22;2674;49.722;10.892;2022-08-23T03:25:59;13.10;99.90
5304;DHT22;2674;49.722;10.892;2022-08-23T03:28:27;13.00;99.90
5304;DHT22;2674;49.722;10.892;2022-08-23T03:30:53;13.10;99.90
5304;DHT22;2674;49.722;10.892;2022-08-23T03:33:20;13.00;99.90
5304;DHT22;2674;49.722;10.892;2022-08-23T03:35:46;13.00;99.90
5304;DHT22;2674;49.722;10.892;2022-08-23T03:38:13;13.00;99.90
5304;DHT22;2674;49.722;10.892;2022-08-23T03:40:40;12.90;99.90
5304;DHT22;2674;49.722;10.892;2022-08-23T03:43:06;12.90;99.90
5304;DHT22;2674;49.722;10.892;2022-08-23T03:45:32;12.90;99.90
5304;DHT22;2674;49.722;10.892;2022-08-23T03:47:58;12.90;99.90
5304;DHT22;2674;49.722;10.892;2022-08-23T03:50:24;12.80;99.90
5304;DHT22;2674;49.722;10.892;2022-08-23T03:52:50;12.80;99.90
5304;DHT22;2674;49.722;10.892;2022-08-23T03:55:16;12.80;99.90
5304;DHT22;2674;49.722;10.892;2022-08-23T03:57:42;12.80;99.90
5304;DHT22;2674;49.722;10.892;2022-08-23T04:00:10;12.80;99.90
5304;DHT22;2674;49.722;10.892;2022-08-23T04:02:37;12.80;99.90
5304;DHT22;2674;49.722;10.892;2022-08-23T04:05:04;12.70;99.90
5304;DHT22;2674;49.722;10.892;2022-08-23T04:07:30;12.70;99.90
5304;DHT22;2674;49.722;10.892;2022-08-23T04:09:56;12.70;99.90
5304;DHT22;2674;49.722;10.892;2022-08-23T04:12:22;12.60;99.90
5304;DHT22;2674;49.722;10.892;2022-08-23T04:14:48;12.60;99.90
5304;DHT22;2674;49.722;10.892;2022-08-23T04:17:15;12.50;99.90
5304;DHT22;2674;49.722;10.892;2022-08-23T04:19:42;12.50;99.90
5304;DHT22;2674;49.722;10.892;2022-08-23T04:22:16;12.50;99.90
5304;DHT22;2674;49.722;10.892;2022-08-23T04:24:43;12.50;99.90
5304;DHT22;2674;49.722;10.892;2022-08-23T04:27:10;12.50;99.90
5304;DHT22;2674;49.722;10.892;2022-08-23T04:29:36;12.50;99.90
5304;DHT22;2674;49.722;10.892;2022-08-23T04:32:04;12.50;99.90
5304;DHT22;2674;49.722;10.892;2022-08-23T04:34:30;12.40;99.90
5304;DHT22;2674;49.722;10.892;2022-08-23T04:36:57;12.40;99.90
5304;DHT22;2674;49.722;10.892;2022-08-23T04:39:24;12.40;99.90
5304;DHT22;2674;49.722;10.892;2022-08-23T04:41:49;12.40;99.90
5304;DHT22;2674;49.722;10.892;2022-08-23T04:44:34;12.40;99.90
5304;DHT22;2674;49.722;10.892;2022-08-23T04:47:00;12.50;99.90
5304;DHT22;2674;49.722;10.892;2022-08-23T04:49:26;12.50;99.90
5304;DHT22;2674;49.722;10.892;2022-08-23T04:51:52;12.50;99.90
5304;DHT22;2674;49.722;10.892;2022-08-23T04:54:18;12.50;99.90
5304;DHT22;2674;49.722;10.892;2022-08-23T04:56:45;12.50;99.90
5304;DHT22;2674;49.722;10.892;2022-08-23T04:59:11;12.50;99.90
5304;DHT22;2674;49.722;10.892;2022-08-23T05:01:37;12.50;99.90
5304;DHT22;2674;49.722;10.892;2022-08-23T05:04:04;12.50;99.90
5304;DHT22;2674;49.722;10.892;2022-08-23T05:06:30;12.60;99.90
5304;DHT22;2674;49.722;10.892;2022-08-23T05:08:56;12.60;99.90
5304;DHT22;2674;49.722;10.892;2022-08-23T05:11:23;12.70;99.90
5304;DHT22;2674;49.722;10.892;2022-08-23T05:13:49;12.70;99.90
5304;DHT22;2674;49.722;10.892;2022-08-23T05:16:16;13.00;99.90
5304;DHT22;2674;49.722;10.892;2022-08-23T05:18:42;13.30;99.90
5304;DHT22;2674;49.722;10.892;2022-08-23T05:21:13;13.70;99.90
5304;DHT22;2674;49.722;10.892;2022-08-23T05:23:39;14.00;99.90
5304;DHT22;2674;49.722;10.892;2022-08-23T05:26:05;14.30;99.90
5304;DHT22;2674;49.722;10.892;2022-08-23T05:28:34;14.60;99.90
5304;DHT22;2674;49.722;10.892;2022-08-23T05:33:34;14.90;99.90
5304;DHT22;2674;49.722;10.892;2022-08-23T05:36:01;15.00;99.90
5304;DHT22;2674;49.722;10.892;2022-08-23T05:38:28;15.00;99.90
5304;DHT22;2674;49.722;10.892;2022-08-23T05:40:56;15.00;99.90
5304;DHT22;2674;49.722;10.892;2022-08-23T05:43:23;15.00;99.90
5304;DHT22;2674;49.722;10.892;2022-08-23T05:46:22;15.00;99.90
5304;DHT22;2674;49.722;10.892;2022-08-23T05:48:49;15.10;99.90
5304;DHT22;2674;49.722;10.892;2022-08-23T05:51:22;15.20;99.90
5304;DHT22;2674;49.722;10.892;2022-08-23T05:53:50;15.30;99.90
5304;DHT22;2674;49.722;10.892;2022-08-23T05:58:44;15.50;99.90
5304;DHT22;2674;49.722;10.892;2022-08-23T06:01:11;15.60;99.90
5304;DHT22;2674;49.722;10.892;2022-08-23T06:03:39;15.80;99.90
5304;DHT22;2674;49.722;10.892;2022-08-23T06:06:05;15.90;99.90
5304;DHT22;2674;49.722;10.892;2022-08-23T06:08:32;16.00;99.90
5304;DHT22;2674;49.722;10.892;2022-08-23T06:11:03;16.10;99.90
5304;DHT22;2674;49.722;10.892;2022-08-23T06:13:30;16.10;99.90
5304;DHT22;2674;49.722;10.892;2022-08-23T06:15:57;16.20;99.90
5304;DHT22;2674;49.722;10.892;2022-08-23T06:18:24;16.20;99.90
5304;DHT22;2674;49.722;10.892;2022-08-23T06:21:07;16.30;99.90
5304;DHT22;2674;49.722;10.892;2022-08-23T06:23:35;16.40;99.90
5304;DHT22;2674;49.722;10.892;2022-08-23T06:26:08;16.50;99.90
5304;DHT22;2674;49.722;10.892;2022-08-23T06:28:34;16.50;99.90
5304;DHT22;2674;49.722;10.892;2022-08-23T06:30:59;16.60;99.90
5304;DHT22;2674;49.722;10.892;2022-08-23T06:33:25;16.60;99.90
5304;DHT22;2674;49.722;10.892;2022-08-23T06:36:04;16.70;99.90
5304;DHT22;2674;49.722;10.892;2022-08-23T06:38:31;16.70;99.90
5304;DHT22;2674;49.722;10.892;2022-08-23T06:41:06;16.80;99.90
5304;DHT22;2674;49.722;10.892;2022-08-23T06:43:32;16.90;99.90
5304;DHT22;2674;49.722;10.892;2022-08-23T06:46:15;17.00;99.90
5304;DHT22;2674;49.722;10.892;2022-08-23T06:48:43;17.00;99.90
5304;DHT22;2674;49.722;10.892;2022-08-23T06:51:14;17.10;99.90
5304;DHT22;2674;49.722;10.892;2022-08-23T06:53:43;17.10;99.90
5304;DHT22;2674;49.722;10.892;2022-08-23T06:56:10;17.20;99.90
5304;DHT22;2674;49.722;10.892;2022-08-23T06:58:36;17.30;99.90
5304;DHT22;2674;49.722;10.892;2022-08-23T07:01:13;17.40;99.90
5304;DHT22;2674;49.722;10.892;2022-08-23T07:03:41;17.60;99.90
5304;DHT22;2674;49.722;10.892;2022-08-23T07:06:07;17.70;99.90
5304;DHT22;2674;49.722;10.892;2022-08-23T07:08:34;17.80;99.90
5304;DHT22;2674;49.722;10.892;2022-08-23T07:11:03;17.90;99.90
5304;DHT22;2674;49.722;10.892;2022-08-23T07:13:29;18.00;99.90
5304;DHT22;2674;49.722;10.892;2022-08-23T07:15:59;18.10;99.90
5304;DHT22;2674;49.722;10.892;2022-08-23T07:18:28;18.20;99.90
5304;DHT22;2674;49.722;10.892;2022-08-23T07:21:00;18.30;99.90
5304;DHT22;2674;49.722;10.892;2022-08-23T07:23:28;18.40;99.90
5304;DHT22;2674;49.722;10.892;2022-08-23T07:25:59;18.50;99.90
5304;DHT22;2674;49.722;10.892;2022-08-23T07:28:26;18.50;99.90
5304;DHT22;2674;49.722;10.892;2022-08-23T07:30:53;18.60;99.90
5304;DHT22;2674;49.722;10.892;2022-08-23T07:33:20;18.70;99.90
5304;DHT22;2674;49.722;10.892;2022-08-23T07:35:50;18.80;99.90
5304;DHT22;2674;49.722;10.892;2022-08-23T07:38:18;19.00;99.90
5304;DHT22;2674;49.722;10.892;2022-08-23T07:40:44;19.10;99.90
5304;DHT22;2674;49.722;10.892;2022-08-23T07:43:10;19.20;99.90
5304;DHT22;2674;49.722;10.892;2022-08-23T07:45:37;19.30;99.90
5304;DHT22;2674;49.722;10.892;2022-08-23T07:48:04;19.50;99.90
5304;DHT22;2674;49.722;10.892;2022-08-23T07:50:30;19.60;99.90
5304;DHT22;2674;49.722;10.892;2022-08-23T07:52:56;19.60;99.90
5304;DHT22;2674;49.722;10.892;2022-08-23T07:55:22;19.80;99.90
5304;DHT22;2674;49.722;10.892;2022-08-23T07:57:48;20.00;99.90
5304;DHT22;2674;49.722;10.892;2022-08-23T08:00:14;20.10;99.90
5304;DHT22;2674;49.722;10.892;2022-08-23T08:02:40;20.20;99.90
5304;DHT22;2674;49.722;10.892;2022-08-23T08:05:07;20.30;99.90
5304;DHT22;2674;49.722;10.892;2022-08-23T08:07:33;20.40;99.90
5304;DHT22;2674;49.722;10.892;2022-08-23T08:09:58;20.40;99.90
5304;DHT22;2674;49.722;10.892;2022-08-23T08:12:25;20.50;99.90
5304;DHT22;2674;49.722;10.892;2022-08-23T08:14:52;20.60;99.90
5304;DHT22;2674;49.722;10.892;2022-08-23T08:17:19;20.70;99.90
5304;DHT22;2674;49.722;10.892;2022-08-23T08:19:45;20.80;99.90
5304;DHT22;2674;49.722;10.892;2022-08-23T08:22:11;20.90;99.90
5304;DHT22;2674;49.722;10.892;2022-08-23T08:24:38;21.00;99.90
5304;DHT22;2674;49.722;10.892;2022-08-23T08:27:04;21.10;99.90
5304;DHT22;2674;49.722;10.892;2022-08-23T08:29:30;21.10;99.90
5304;DHT22;2674;49.722;10.892;2022-08-23T08:31:56;21.30;99.90
5304;DHT22;2674;49.722;10.892;2022-08-23T08:34:23;21.30;99.90
5304;DHT22;2674;49.722;10.892;2022-08-23T08:36:51;21.40;99.90
5304;DHT22;2674;49.722;10.892;2022-08-23T08:39:30;21.40;99.10
5304;DHT22;2674;49.722;10.892;2022-08-23T08:50:42;21.60;97.90
5304;DHT22;2674;49.722;10.892;2022-08-23T08:53:39;21.70;97.90
5304;DHT22;2674;49.722;10.892;2022-08-23T08:56:27;21.90;98.90
5304;DHT22;2674;49.722;10.892;2022-08-23T08:59:06;22.00;97.60
5304;DHT22;2674;49.722;10.892;2022-08-23T09:01:36;22.20;97.90
5304;DHT22;2674;49.722;10.892;2022-08-23T09:04:03;22.30;97.90
5304;DHT22;2674;49.722;10.892;2022-08-23T09:17:53;22.70;96.30
5304;DHT22;2674;49.722;10.892;2022-08-23T09:20:22;22.90;96.40
5304;DHT22;2674;49.722;10.892;2022-08-23T09:22:51;23.00;94.80
5304;DHT22;2674;49.722;10.892;2022-08-23T09:25:23;22.90;94.60
5304;DHT22;2674;49.722;10.892;2022-08-23T09:27:49;22.80;95.70
5304;DHT22;2674;49.722;10.892;2022-08-23T09:30:17;22.70;95.00
5304;DHT22;2674;49.722;10.892;2022-08-23T09:32:49;22.80;95.00
5304;DHT22;2674;49.722;10.892;2022-08-23T09:40:37;23.20;94.80
5304;DHT22;2674;49.722;10.892;2022-08-23T09:51:31;23.90;94.00
5304;DHT22;2674;49.722;10.892;2022-08-23T09:54:06;24.00;94.10
5304;DHT22;2674;49.722;10.892;2022-08-23T09:56:38;24.10;91.20
5304;DHT22;2674;49.722;10.892;2022-08-23T10:01:50;23.90;90.00
5304;DHT22;2674;49.722;10.892;2022-08-23T10:04:23;24.00;90.30
5304;DHT22;2674;49.722;10.892;2022-08-23T10:06:54;24.00;90.60
5304;DHT22;2674;49.722;10.892;2022-08-23T10:09:31;24.00;90.20
5304;DHT22;2674;49.722;10.892;2022-08-23T10:11:59;24.10;90.00
5304;DHT22;2674;49.722;10.892;2022-08-23T10:14:27;24.30;88.70
5304;DHT22;2674;49.722;10.892;2022-08-23T10:25:48;24.80;86.60
5304;DHT22;2674;49.722;10.892;2022-08-23T10:28:49;24.80;85.40
5304;DHT22;2674;49.722;10.892;2022-08-23T10:34:23;25.10;83.10
5304;DHT22;2674;49.722;10.892;2022-08-23T10:39:28;25.10;77.50
5304;DHT22;2674;49.722;10.892;2022-08-23T10:42:10;25.10;76.80
5304;DHT22;2674;49.722;10.892;2022-08-23T10:47:33;25.10;75.80
5304;DHT22;2674;49.722;10.892;2022-08-23T10:50:07;25.10;76.10
5304;DHT22;2674;49.722;10.892;2022-08-23T10:52:37;25.30;75.20
5304;DHT22;2674;49.722;10.892;2022-08-23T10:55:21;25.20;73.30
5304;DHT22;2674;49.722;10.892;2022-08-23T10:58:02;25.30;75.40
5304;DHT22;2674;49.722;10.892;2022-08-23T11:00:31;25.30;71.40
5304;DHT22;2674;49.722;10.892;2022-08-23T11:04:19;25.30;70.40
5304;DHT22;2674;49.722;10.892;2022-08-23T11:14:58;25.50;69.90
5304;DHT22;2674;49.722;10.892;2022-08-23T11:31:55;25.80;64.80
5304;DHT22;2674;49.722;10.892;2022-08-23T11:42:43;25.80;63.10
5304;DHT22;2674;49.722;10.892;2022-08-23T11:58:50;26.50;59.00
5304;DHT22;2674;49.722;10.892;2022-08-23T12:01:33;26.50;57.60
5304;DHT22;2674;49.722;10.892;2022-08-23T12:04:06;26.60;57.20
5304;DHT22;2674;49.722;10.892;2022-08-23T12:06:50;26.80;57.30
5304;DHT22;2674;49.722;10.892;2022-08-23T12:14:31;27.00;57.00
5304;DHT22;2674;49.722;10.892;2022-08-23T12:17:05;27.20;57.00
5304;DHT22;2674;49.722;10.892;2022-08-23T12:25:24;27.30;54.70
5304;DHT22;2674;49.722;10.892;2022-08-23T12:28:22;27.40;53.50
5304;DHT22;2674;49.722;10.892;2022-08-23T12:34:38;27.30;53.70
5304;DHT22;2674;49.722;10.892;2022-08-23T12:38:11;27.10;54.10
5304;DHT22;2674;49.722;10.892;2022-08-23T12:40:15;27.10;54.40
5304;DHT22;2674;49.722;10.892;2022-08-23T12:42:46;27.10;51.40
5304;DHT22;2674;49.722;10.892;2022-08-23T12:45:20;27.20;52.90
5304;DHT22;2674;49.722;10.892;2022-08-23T12:48:00;27.30;51.50
5304;DHT22;2674;49.722;10.892;2022-08-23T12:50:33;27.40;50.70
5304;DHT22;2674;49.722;10.892;2022-08-23T12:53:03;27.60;50.50
5304;DHT22;2674;49.722;10.892;2022-08-23T12:55:38;27.60;48.40
5304;DHT22;2674;49.722;10.892;2022-08-23T12:58:06;27.70;50.60
5304;DHT22;2674;49.722;10.892;2022-08-23T13:00:34;27.30;49.70
5304;DHT22;2674;49.722;10.892;2022-08-23T13:03:20;27.20;50.70
5304;DHT22;2674;49.722;10.892;2022-08-23T13:05:56;27.30;51.60
5304;DHT22;2674;49.722;10.892;2022-08-23T13:08:33;27.40;51.30
5304;DHT22;2674;49.722;10.892;2022-08-23T13:11:04;27.30;51.40
5304;DHT22;2674;49.722;10.892;2022-08-23T13:13:31;27.30;50.60
5304;DHT22;2674;49.722;10.892;2022-08-23T13:16:02;27.40;51.30
5304;DHT22;2674;49.722;10.892;2022-08-23T13:18:47;27.40;51.10
5304;DHT22;2674;49.722;10.892;2022-08-23T13:21:24;27.30;49.80
5304;DHT22;2674;49.722;10.892;2022-08-23T13:23:58;27.30;51.20
5304;DHT22;2674;49.722;10.892;2022-08-23T13:26:38;27.60;51.20
5304;DHT22;2674;49.722;10.892;2022-08-23T13:34:34;28.30;50.50
5304;DHT22;2674;49.722;10.892;2022-08-23T13:37:25;28.30;48.90
5304;DHT22;2674;49.722;10.892;2022-08-23T13:39:54;28.20;49.30
5304;DHT22;2674;49.722;10.892;2022-08-23T13:42:34;27.90;49.80
5304;DHT22;2674;49.722;10.892;2022-08-23T13:45:11;27.80;49.30
5304;DHT22;2674;49.722;10.892;2022-08-23T13:47:38;27.80;50.00
5304;DHT22;2674;49.722;10.892;2022-08-23T13:50:23;27.60;50.10
5304;DHT22;2674;49.722;10.892;2022-08-23T13:52:49;27.50;50.30
5304;DHT22;2674;49.722;10.892;2022-08-23T13:55:15;27.70;51.10
5304;DHT22;2674;49.722;10.892;2022-08-23T13:57:41;27.80;51.00
5304;DHT22;2674;49.722;10.892;2022-08-23T14:00:08;27.70;49.40
5304;DHT22;2674;49.722;10.892;2022-08-23T14:02:35;27.50;50.00
5304;DHT22;2674;49.722;10.892;2022-08-23T14:05:04;27.60;50.50
5304;DHT22;2674;49.722;10.892;2022-08-23T14:07:30;27.80;51.20
5304;DHT22;2674;49.722;10.892;2022-08-23T14:09:56;27.80;50.70
5304;DHT22;2674;49.722;10.892;2022-08-23T14:12:26;27.90;51.30
5304;DHT22;2674;49.722;10.892;2022-08-23T14:14:52;28.00;50.70
5304;DHT22;2674;49.722;10.892;2022-08-23T14:17:18;28.20;50.70
5304;DHT22;2674;49.722;10.892;2022-08-23T14:19:45;28.20;50.10
5304;DHT22;2674;49.722;10.892;2022-08-23T14:22:14;28.10;50.10
5304;DHT22;2674;49.722;10.892;2022-08-23T14:24:44;28.20;49.20
5304;DHT22;2674;49.722;10.892;2022-08-23T14:27:10;28.20;49.00
5304;DHT22;2674;49.722;10.892;2022-08-23T14:29:36;28.40;49.60
5304;DHT22;2674;49.722;10.892;2022-08-23T14:32:03;28.50;50.30
5304;DHT22;2674;49.722;10.892;2022-08-23T14:34:29;28.60;48.30
5304;DHT22;2674;49.722;10.892;2022-08-23T14:36:56;28.60;49.50
5304;DHT22;2674;49.722;10.892;2022-08-23T14:39:22;28.40;48.10
5304;DHT22;2674;49.722;10.892;2022-08-23T14:41:49;28.40;49.20
5304;DHT22;2674;49.722;10.892;2022-08-23T14:44:15;28.50;47.80
5304;DHT22;2674;49.722;10.892;2022-08-23T14:46:43;28.50;48.00
5304;DHT22;2674;49.722;10.892;2022-08-23T14:49:10;28.60;46.90
5304;DHT22;2674;49.722;10.892;2022-08-23T14:51:42;28.50;47.60
5304;DHT22;2674;49.722;10.892;2022-08-23T14:54:22;28.40;47.50
5304;DHT22;2674;49.722;10.892;2022-08-23T14:56:49;28.40;48.90
5304;DHT22;2674;49.722;10.892;2022-08-23T14:59:15;28.30;48.60
5304;DHT22;2674;49.722;10.892;2022-08-23T15:01:41;28.10;47.60
5304;DHT22;2674;49.722;10.892;2022-08-23T15:04:08;28.00;48.70
5304;DHT22;2674;49.722;10.892;2022-08-23T15:06:34;28.00;48.40
5304;DHT22;2674;49.722;10.892;2022-08-23T15:09:00;28.00;49.40
5304;DHT22;2674;49.722;10.892;2022-08-23T15:11:26;28.30;49.70
5304;DHT22;2674;49.722;10.892;2022-08-23T15:13:52;28.20;48.60
5304;DHT22;2674;49.722;10.892;2022-08-23T15:16:19;28.20;49.70
5304;DHT22;2674;49.722;10.892;2022-08-23T15:18:48;28.10;48.70
5304;DHT22;2674;49.722;10.892;2022-08-23T15:21:16;28.10;49.00
5304;DHT22;2674;49.722;10.892;2022-08-23T15:23:42;28.30;48.50
5304;DHT22;2674;49.722;10.892;2022-08-23T15:26:10;28.30;49.00
5304;DHT22;2674;49.722;10.892;2022-08-23T15:28:37;28.40;49.20
5304;DHT22;2674;49.722;10.892;2022-08-23T15:31:04;28.50;49.70
5304;DHT22;2674;49.722;10.892;2022-08-23T15:33:30;28.50;48.00
5304;DHT22;2674;49.722;10.892;2022-08-23T15:35:59;28.70;48.30
5304;DHT22;2674;49.722;10.892;2022-08-23T15:38:29;28.70;49.50
5304;DHT22;2674;49.722;10.892;2022-08-23T15:40:56;28.80;47.70
5304;DHT22;2674;49.722;10.892;2022-08-23T15:43:22;28.80;48.00
5304;DHT22;2674;49.722;10.892;2022-08-23T15:45:49;28.80;47.50
5304;DHT22;2674;49.722;10.892;2022-08-23T15:48:28;28.70;46.70
5304;DHT22;2674;49.722;10.892;2022-08-23T15:50:57;28.60;47.30
5304;DHT22;2674;49.722;10.892;2022-08-23T15:53:23;28.60;47.50
5304;DHT22;2674;49.722;10.892;2022-08-23T15:55:50;28.60;48.10
5304;DHT22;2674;49.722;10.892;2022-08-23T15:58:20;28.60;46.80
5304;DHT22;2674;49.722;10.892;2022-08-23T16:00:48;28.60;47.20
5304;DHT22;2674;49.722;10.892;2022-08-23T16:03:14;28.60;48.60
5304;DHT22;2674;49.722;10.892;2022-08-23T16:05:43;28.60;49.10
5304;DHT22;2674;49.722;10.892;2022-08-23T16:08:23;28.70;49.10
5304;DHT22;2674;49.722;10.892;2022-08-23T16:10:51;28.80;48.70
5304;DHT22;2674;49.722;10.892;2022-08-23T16:13:17;28.70;48.00
5304;DHT22;2674;49.722;10.892;2022-08-23T16:15:43;28.80;47.60
5304;DHT22;2674;49.722;10.892;2022-08-23T16:18:09;28.80;48.10
5304;DHT22;2674;49.722;10.892;2022-08-23T16:20:36;28.70;46.90
5304;DHT22;2674;49.722;10.892;2022-08-23T16:23:02;28.80;48.20
5304;DHT22;2674;49.722;10.892;2022-08-23T16:25:28;29.00;47.80
5304;DHT22;2674;49.722;10.892;2022-08-23T16:27:54;28.90;47.30
5304;DHT22;2674;49.722;10.892;2022-08-23T16:30:20;28.70;46.50
5304;DHT22;2674;49.722;10.892;2022-08-23T16:32:46;28.60;47.70
5304;DHT22;2674;49.722;10.892;2022-08-23T16:35:12;28.80;47.50
5304;DHT22;2674;49.722;10.892;2022-08-23T16:37:38;28.60;46.30
5304;DHT22;2674;49.722;10.892;2022-08-23T16:40:06;28.50;47.30
5304;DHT22;2674;49.722;10.892;2022-08-23T16:42:32;28.40;47.50
5304;DHT22;2674;49.722;10.892;2022-08-23T16:44:58;28.40;48.20
5304;DHT22;2674;49.722;10.892;2022-08-23T16:47:24;28.40;47.10
5304;DHT22;2674;49.722;10.892;2022-08-23T16:49:50;28.40;49.10
5304;DHT22;2674;49.722;10.892;2022-08-23T16:52:16;28.50;47.30
5304;DHT22;2674;49.722;10.892;2022-08-23T16:54:42;28.70;47.40
5304;DHT22;2674;49.722;10.892;2022-08-23T16:57:08;28.80;47.80
5304;DHT22;2674;49.722;10.892;2022-08-23T16:59:34;28.90;47.20
5304;DHT22;2674;49.722;10.892;2022-08-23T17:02:03;29.10;47.60
5304;DHT22;2674;49.722;10.892;2022-08-23T17:04:30;29.10;46.90
5304;DHT22;2674;49.722;10.892;2022-08-23T17:06:58;28.90;46.90
5304;DHT22;2674;49.722;10.892;2022-08-23T17:09:26;28.80;46.50
5304;DHT22;2674;49.722;10.892;2022-08-23T17:11:53;28.50;46.20
5304;DHT22;2674;49.722;10.892;2022-08-23T17:14:19;28.20;48.60
5304;DHT22;2674;49.722;10.892;2022-08-23T17:16:46;28.10;49.40
5304;DHT22;2674;49.722;10.892;2022-08-23T17:19:13;27.90;50.60
5304;DHT22;2674;49.722;10.892;2022-08-23T17:21:40;27.60;51.10
5304;DHT22;2674;49.722;10.892;2022-08-23T17:24:06;27.20;52.90
5304;DHT22;2674;49.722;10.892;2022-08-23T17:26:32;27.00;53.70
5304;DHT22;2674;49.722;10.892;2022-08-23T17:28:59;26.90;53.40
5304;DHT22;2674;49.722;10.892;2022-08-23T17:31:26;26.60;53.60
5304;DHT22;2674;49.722;10.892;2022-08-23T17:33:52;26.40;54.80
5304;DHT22;2674;49.722;10.892;2022-08-23T17:36:34;26.20;56.40
5304;DHT22;2674;49.722;10.892;2022-08-23T17:39:01;26.00;56.50
5304;DHT22;2674;49.722;10.892;2022-08-23T17:41:28;26.00;56.70
5304;DHT22;2674;49.722;10.892;2022-08-23T17:43:55;26.10;57.20
5304;DHT22;2674;49.722;10.892;2022-08-23T17:46:21;26.10;57.40
5304;DHT22;2674;49.722;10.892;2022-08-23T17:48:47;26.10;58.50
5304;DHT22;2674;49.722;10.892;2022-08-23T17:51:12;26.00;59.10
5304;DHT22;2674;49.722;10.892;2022-08-23T17:53:38;26.00;59.00
5304;DHT22;2674;49.722;10.892;2022-08-23T17:56:04;25.90;59.70
5304;DHT22;2674;49.722;10.892;2022-08-23T17:58:30;25.70;60.20
5304;DHT22;2674;49.722;10.892;2022-08-23T18:00:56;25.50;61.10
5304;DHT22;2674;49.722;10.892;2022-08-23T18:03:22;25.30;62.40
5304;DHT22;2674;49.722;10.892;2022-08-23T18:05:48;25.10;63.10
5304;DHT22;2674;49.722;10.892;2022-08-23T18:08:14;24.90;64.40